createdAt,value
2023-11-21T00:02:19.172Z,18.20
2023-11-21T00:04:46.080Z,19.40
2023-11-21T00:07:12.725Z,21.10
2023-11-21T00:09:39.790Z,17.20
2023-11-21T00:12:26.169Z,17.20
2023-11-21T00:14:54.992Z,17.80
2023-11-21T00:17:23.460Z,15.40
2023-11-21T00:19:52.651Z,21.00
2023-11-21T00:22:19.708Z,19.10
2023-11-21T00:24:50.603Z,18.10
2023-11-21T00:27:20.998Z,16.40
2023-11-21T00:29:54.274Z,18.80
2023-11-21T00:32:21.190Z,17.70
2023-11-21T00:34:48.890Z,15.00
2023-11-21T00:37:16.448Z,15.50
2023-11-21T00:39:43.506Z,17.90
2023-11-21T00:42:11.042Z,20.30
2023-11-21T00:44:40.520Z,18.20
2023-11-21T00:47:08.573Z,19.30
2023-11-21T00:49:35.413Z,20.80
2023-11-21T00:52:03.386Z,18.20
2023-11-21T00:54:32.658Z,20.90
2023-11-21T00:57:01.637Z,17.80
2023-11-21T00:59:28.588Z,17.10
2023-11-21T01:01:55.385Z,19.10
2023-11-21T01:04:22.651Z,16.60
2023-11-21T01:06:49.440Z,21.00
2023-11-21T01:09:18.910Z,17.60
2023-11-21T01:14:14.762Z,16.30
2023-11-21T01:16:41.712Z,18.10
2023-11-21T01:19:09.774Z,19.30
2023-11-21T01:21:36.638Z,15.20
2023-11-21T01:24:05.777Z,15.80
2023-11-21T01:26:32.690Z,18.20
2023-11-21T01:28:59.721Z,15.60
2023-11-21T01:31:29.699Z,15.80
2023-11-21T01:33:56.999Z,18.80
2023-11-21T01:36:23.522Z,15.40
2023-11-21T01:38:50.168Z,16.10
2023-11-21T01:41:16.771Z,18.00
2023-11-21T01:43:43.441Z,18.00
2023-11-21T01:46:10.606Z,17.10
2023-11-21T01:48:38.092Z,19.40
2023-11-21T01:51:07.008Z,16.90
2023-11-21T01:54:24.048Z,19.90
2023-11-21T01:56:51.507Z,19.30
2023-11-21T01:59:22.965Z,16.50
2023-11-21T02:01:51.774Z,17.50
2023-11-21T02:04:22.582Z,17.70
2023-11-21T02:09:28.579Z,18.10
2023-11-21T02:11:58.870Z,18.30
2023-11-21T02:14:27.917Z,17.80
2023-11-21T02:16:56.395Z,19.10
2023-11-21T02:19:26.691Z,17.10
2023-11-21T02:21:54.426Z,17.20
2023-11-21T02:24:22.634Z,17.40
2023-11-21T02:26:53.550Z,18.90
2023-11-21T02:29:29.174Z,20.50
2023-11-21T02:31:57.038Z,20.00
2023-11-21T02:34:26.647Z,17.80
2023-11-21T02:36:55.246Z,18.90
2023-11-21T02:39:26.080Z,17.50
2023-11-21T02:41:53.881Z,17.00
2023-11-21T02:44:21.863Z,19.20
2023-11-21T02:46:49.420Z,15.70
2023-11-21T02:49:17.049Z,19.60
2023-11-21T02:51:45.866Z,18.00
2023-11-21T02:54:13.394Z,17.70
2023-11-21T02:56:41.347Z,21.90
2023-11-21T02:59:08.883Z,20.30
2023-11-21T03:01:36.531Z,20.70
2023-11-21T03:04:04.365Z,19.50
2023-11-21T03:06:32.041Z,21.00
2023-11-21T03:08:59.707Z,18.40
2023-11-21T03:11:27.357Z,18.70
2023-11-21T03:13:54.968Z,19.20
2023-11-21T03:16:22.837Z,19.60
2023-11-21T03:18:50.581Z,23.80
2023-11-21T03:21:18.221Z,23.60
2023-11-21T03:23:46.267Z,20.80
2023-11-21T03:26:14.574Z,24.90
2023-11-21T03:28:42.289Z,22.90
2023-11-21T03:31:10.421Z,24.20
2023-11-21T03:33:38.045Z,24.10
2023-11-21T03:36:06.432Z,21.10
2023-11-21T03:38:33.908Z,22.30
2023-11-21T03:41:01.386Z,20.80
2023-11-21T03:43:30.662Z,20.30
2023-11-21T03:45:58.252Z,25.00
2023-11-21T03:48:27.386Z,22.70
2023-11-21T03:50:54.843Z,24.40
2023-11-21T03:53:22.295Z,25.30
2023-11-21T03:55:50.683Z,23.40
2023-11-21T03:58:18.574Z,22.00
2023-11-21T04:00:50.008Z,23.50
2023-11-21T04:03:17.745Z,23.80
2023-11-21T04:05:47.029Z,24.50
2023-11-21T04:08:14.593Z,25.60
2023-11-21T04:10:43.377Z,25.80
2023-11-21T04:13:11.774Z,22.30
2023-11-21T04:15:39.261Z,26.70
2023-11-21T04:18:06.875Z,24.60
2023-11-21T04:20:34.497Z,25.70
2023-11-21T04:23:02.627Z,21.70
2023-11-21T04:25:30.204Z,25.30
2023-11-21T04:27:57.818Z,23.30
2023-11-21T04:30:25.408Z,29.20
2023-11-21T04:32:53.405Z,25.30
2023-11-21T04:35:20.938Z,27.60
2023-11-21T04:37:48.852Z,26.10
2023-11-21T04:40:16.575Z,28.70
2023-11-21T04:42:44.155Z,25.50
2023-11-21T04:45:13.826Z,30.20
2023-11-21T04:47:41.779Z,24.70
2023-11-21T04:50:10.190Z,26.70
2023-11-21T04:52:37.894Z,25.80
2023-11-21T04:55:08.076Z,26.00
2023-11-21T04:57:35.553Z,27.70
2023-11-21T05:00:07.148Z,27.00
2023-11-21T05:02:39.758Z,26.60
2023-11-21T05:05:09.041Z,27.40
2023-11-21T05:07:36.993Z,29.50
2023-11-21T05:10:10.236Z,30.50
2023-11-21T05:12:40.578Z,31.20
2023-11-21T05:15:11.000Z,30.00
2023-11-21T05:17:40.661Z,30.30
2023-11-21T05:20:11.151Z,26.50
2023-11-21T05:22:38.767Z,31.00
2023-11-21T05:25:08.984Z,28.00
2023-11-21T05:27:37.035Z,29.40
2023-11-21T05:30:06.635Z,32.80
2023-11-21T05:32:35.196Z,29.40
2023-11-21T05:35:02.840Z,31.40
2023-11-21T05:37:31.068Z,26.80
2023-11-21T05:39:58.558Z,32.50
2023-11-21T05:42:26.011Z,34.00
2023-11-21T05:44:53.531Z,28.90
2023-11-21T05:47:23.220Z,31.50
2023-11-21T05:49:52.358Z,33.70
2023-11-21T05:52:20.145Z,34.00
2023-11-21T05:54:47.625Z,35.10
2023-11-21T05:57:15.076Z,33.10
2023-11-21T05:59:42.537Z,32.30
2023-11-21T06:02:09.988Z,36.30
2023-11-21T06:04:37.607Z,33.00
2023-11-21T06:07:05.667Z,40.40
2023-11-21T06:09:33.133Z,38.00
2023-11-21T06:12:00.882Z,33.10
2023-11-21T06:14:28.335Z,35.00
2023-11-21T06:16:57.784Z,31.80
2023-11-21T06:19:25.509Z,33.10
2023-11-21T06:21:53.051Z,33.60
2023-11-21T06:24:22.589Z,35.40
2023-11-21T06:26:50.038Z,35.00
2023-11-21T06:29:17.535Z,34.50
2023-11-21T06:31:45.081Z,35.80
2023-11-21T06:34:12.657Z,39.90
2023-11-21T06:36:40.128Z,38.90
2023-11-21T06:39:08.363Z,41.00
2023-11-21T06:41:35.876Z,34.60
2023-11-21T06:44:04.125Z,32.80
2023-11-21T06:46:31.809Z,35.00
2023-11-21T06:48:59.475Z,38.80
2023-11-21T06:51:26.978Z,39.60
2023-11-21T06:53:54.938Z,36.10
2023-11-21T06:56:22.580Z,40.10
2023-11-21T06:58:50.374Z,37.50
2023-11-21T07:01:18.110Z,36.60
2023-11-21T07:03:46.677Z,39.20
2023-11-21T07:06:15.160Z,43.20
2023-11-21T07:08:43.879Z,41.20
2023-11-21T07:11:11.342Z,40.90
2023-11-21T07:13:38.803Z,40.40
2023-11-21T07:16:06.848Z,42.20
2023-11-21T07:18:34.346Z,37.60
2023-11-21T07:21:01.897Z,35.90
2023-11-21T07:23:29.375Z,32.40
2023-11-21T07:25:56.835Z,30.00
2023-11-21T07:28:25.563Z,33.10
2023-11-21T07:30:54.003Z,36.10
2023-11-21T07:33:22.707Z,28.30
2023-11-21T07:35:50.155Z,30.40
2023-11-21T07:38:17.633Z,26.80
2023-11-21T07:40:45.116Z,29.50
2023-11-21T07:43:12.621Z,27.80
2023-11-21T07:45:40.088Z,28.00
2023-11-21T07:48:08.099Z,28.70
2023-11-21T07:50:35.640Z,30.70
2023-11-21T07:53:03.197Z,29.30
2023-11-21T07:55:33.521Z,26.80
2023-11-21T07:58:01.175Z,29.40
2023-11-21T08:00:31.559Z,26.70
2023-11-21T08:02:59.388Z,30.20
2023-11-21T08:05:32.822Z,27.90
2023-11-21T08:08:05.606Z,27.80
2023-11-21T08:10:33.163Z,27.00
2023-11-21T08:13:00.731Z,28.10
2023-11-21T08:15:28.450Z,31.00
2023-11-21T08:17:55.930Z,30.30
2023-11-21T08:20:24.197Z,27.30
2023-11-21T08:22:53.155Z,25.30
2023-11-21T08:25:21.456Z,26.50
2023-11-21T08:27:49.854Z,27.90
2023-11-21T08:30:18.149Z,29.00
2023-11-21T08:32:45.830Z,27.50
2023-11-21T08:35:13.751Z,29.40
2023-11-21T08:37:41.476Z,27.70
2023-11-21T08:40:10.693Z,25.60
2023-11-21T08:42:38.896Z,25.40
2023-11-21T08:45:10.182Z,27.70
2023-11-21T08:47:37.890Z,28.00
2023-11-21T08:50:08.971Z,27.10
2023-11-21T08:52:38.325Z,26.30
2023-11-21T08:55:09.283Z,23.60
2023-11-21T08:57:36.996Z,21.30
2023-11-21T09:00:08.852Z,24.30
2023-11-21T09:02:37.930Z,25.30
2023-11-21T09:05:10.395Z,28.40
2023-11-21T09:07:39.222Z,24.60
2023-11-21T09:10:08.889Z,25.90
2023-11-21T09:12:38.409Z,24.40
2023-11-21T09:15:06.805Z,25.40
2023-11-21T09:17:35.693Z,24.10
2023-11-21T09:20:07.096Z,18.80
2023-11-21T09:22:34.904Z,29.20
2023-11-21T09:25:06.265Z,27.30
2023-11-21T09:27:33.826Z,27.00
2023-11-21T09:30:02.045Z,28.80
2023-11-21T09:32:31.087Z,28.80
2023-11-21T09:34:59.778Z,21.80
2023-11-21T09:37:28.635Z,29.20
2023-11-21T09:39:56.587Z,28.20
2023-11-21T09:42:37.420Z,29.50
2023-11-21T09:45:11.878Z,26.70
2023-11-21T09:47:39.949Z,33.90
2023-11-21T09:50:11.892Z,33.20
2023-11-21T09:53:07.559Z,29.90
2023-11-21T09:55:37.585Z,27.50
2023-11-21T09:58:08.968Z,27.60
2023-11-21T10:00:38.027Z,26.80
2023-11-21T10:03:05.614Z,23.90
2023-11-21T10:05:35.718Z,23.60
2023-11-21T10:08:13.401Z,22.90
2023-11-21T10:10:49.636Z,22.40
2023-11-21T10:13:18.492Z,31.20
2023-11-21T10:15:52.567Z,22.00
2023-11-21T10:18:20.386Z,22.60
2023-11-21T10:20:53.917Z,23.00
2023-11-21T10:23:24.277Z,24.90
2023-11-21T10:25:54.041Z,22.50
2023-11-21T10:28:22.889Z,23.00
2023-11-21T10:30:50.734Z,25.60
2023-11-21T10:33:18.515Z,29.50
2023-11-21T10:35:54.651Z,27.40
2023-11-21T10:38:24.537Z,25.10
2023-11-21T10:40:52.290Z,30.60
2023-11-21T10:43:20.300Z,34.10
2023-11-21T10:45:48.358Z,29.40
2023-11-21T10:48:19.415Z,31.70
2023-11-21T10:50:48.046Z,31.80
2023-11-21T10:53:16.295Z,31.10
2023-11-21T10:55:46.089Z,28.10
2023-11-21T10:58:15.276Z,44.40
2023-11-21T11:00:44.563Z,26.40
2023-11-21T11:03:16.995Z,33.90
2023-11-21T11:05:53.628Z,34.10
2023-11-21T11:08:28.153Z,29.20
2023-11-21T11:10:56.691Z,30.20
2023-11-21T11:13:25.659Z,30.90
2023-11-21T11:16:00.809Z,28.70
2023-11-21T11:18:31.689Z,29.00
2023-11-21T11:21:30.422Z,30.00
2023-11-21T11:24:09.201Z,29.60
2023-11-21T11:26:36.819Z,31.30
2023-11-21T11:29:19.918Z,28.20
2023-11-21T11:32:02.058Z,32.40
2023-11-21T11:34:48.489Z,31.40
2023-11-21T11:37:16.017Z,37.10
2023-11-21T11:39:45.142Z,36.90
2023-11-21T11:42:17.862Z,34.50
2023-11-21T11:44:48.767Z,30.20
2023-11-21T11:47:26.014Z,28.40
2023-11-21T11:50:21.604Z,35.50
2023-11-21T11:52:53.895Z,29.20
2023-11-21T11:55:25.465Z,28.30
2023-11-21T11:57:54.359Z,31.10
2023-11-21T12:00:26.686Z,31.50
2023-11-21T12:03:04.894Z,30.60
2023-11-21T12:05:46.576Z,33.10
2023-11-21T12:08:14.243Z,29.90
2023-11-21T12:10:42.000Z,30.30
2023-11-21T12:13:11.730Z,33.50
2023-11-21T12:15:40.961Z,32.10
2023-11-21T12:18:09.126Z,35.00
2023-11-21T12:20:42.171Z,34.00
2023-11-21T12:23:15.458Z,35.10
2023-11-21T12:25:43.805Z,30.00
2023-11-21T12:28:13.164Z,36.10
2023-11-21T12:30:41.271Z,40.90
2023-11-21T12:33:11.192Z,30.80
2023-11-21T12:35:39.117Z,30.10
2023-11-21T12:38:07.482Z,32.20
2023-11-21T12:40:35.700Z,36.90
2023-11-21T12:43:05.756Z,28.90
2023-11-21T12:45:34.044Z,38.20
2023-11-21T12:48:04.992Z,35.30
2023-11-21T12:50:36.823Z,29.20
2023-11-21T12:53:10.011Z,32.60
2023-11-21T12:55:39.162Z,30.80
2023-11-21T12:58:12.784Z,26.70
2023-11-21T13:00:44.031Z,32.40
2023-11-21T13:03:14.469Z,27.30
2023-11-21T13:05:52.200Z,28.90
2023-11-21T13:08:23.165Z,26.50
2023-11-21T13:10:56.783Z,28.00
2023-11-21T13:13:26.353Z,28.80
2023-11-21T13:15:58.211Z,24.70
2023-11-21T13:18:27.902Z,30.80
2023-11-21T13:20:56.730Z,27.10
2023-11-21T13:23:25.232Z,28.50
2023-11-21T13:25:58.594Z,25.30
2023-11-21T13:28:34.733Z,25.70
2023-11-21T13:31:26.188Z,27.40
2023-11-21T13:33:58.078Z,26.10
2023-11-21T13:36:26.858Z,28.00
2023-11-21T13:38:55.211Z,25.80
2023-11-21T13:41:31.970Z,25.80
2023-11-21T13:44:07.110Z,35.10
2023-11-21T13:46:39.097Z,26.60
2023-11-21T13:49:11.470Z,30.40
2023-11-21T13:51:46.081Z,29.20
2023-11-21T13:54:13.947Z,29.30
2023-11-21T13:56:43.850Z,25.50
2023-11-21T14:02:01.244Z,28.10
2023-11-21T14:04:32.319Z,29.20
2023-11-21T14:07:02.722Z,28.70
2023-11-21T14:12:09.117Z,33.90
2023-11-21T14:14:36.661Z,27.30
2023-11-21T14:17:08.317Z,31.10
2023-11-21T14:19:40.259Z,28.40
2023-11-21T14:22:11.362Z,29.80
2023-11-21T14:24:45.074Z,27.90
2023-11-21T14:27:12.776Z,33.00
2023-11-21T14:29:44.811Z,40.40
2023-11-21T14:32:13.148Z,36.80
2023-11-21T14:34:42.352Z,30.20
2023-11-21T14:37:10.091Z,29.30
2023-11-21T14:39:44.342Z,27.20
2023-11-21T14:42:11.881Z,29.30
2023-11-21T14:44:42.661Z,30.90
2023-11-21T14:47:16.802Z,31.20
2023-11-21T14:49:54.458Z,36.00
2023-11-21T14:52:43.632Z,30.70
2023-11-21T14:55:33.456Z,30.60
2023-11-21T14:58:05.674Z,31.00
2023-11-21T15:00:36.314Z,30.00
2023-11-21T15:03:04.765Z,30.00
2023-11-21T15:05:32.597Z,30.60
2023-11-21T15:08:15.063Z,31.20
2023-11-21T15:10:50.944Z,32.50
2023-11-21T15:13:18.537Z,29.30
2023-11-21T15:15:46.361Z,30.80
2023-11-21T15:18:14.100Z,31.00
2023-11-21T15:20:42.703Z,30.70
2023-11-21T15:23:10.522Z,41.60
2023-11-21T15:25:38.269Z,36.20
2023-11-21T15:28:06.207Z,33.90
2023-11-21T15:30:34.467Z,36.40
2023-11-21T15:33:04.813Z,34.10
2023-11-21T15:35:34.136Z,32.40
2023-11-21T15:38:01.770Z,33.50
2023-11-21T15:40:29.500Z,34.60
2023-11-21T15:42:57.792Z,36.80
2023-11-21T15:45:27.244Z,31.90
2023-11-21T15:47:54.967Z,37.60
2023-11-21T15:50:22.671Z,37.30
2023-11-21T15:52:57.369Z,37.70
2023-11-21T15:55:26.958Z,37.80
2023-11-21T15:57:54.571Z,35.30
2023-11-21T16:00:24.100Z,56.00
2023-11-21T16:02:52.176Z,74.30
2023-11-21T16:05:20.190Z,54.80
2023-11-21T16:07:48.955Z,39.70
2023-11-21T16:10:17.182Z,44.40
2023-11-21T16:12:44.773Z,50.20
2023-11-21T16:15:13.098Z,36.80
2023-11-21T16:17:43.123Z,40.90
2023-11-21T16:22:42.005Z,40.70
2023-11-21T16:25:13.673Z,33.60
2023-11-21T16:27:41.794Z,35.80
2023-11-21T16:30:10.120Z,31.70
2023-11-21T16:32:38.365Z,37.70
2023-11-21T16:35:06.636Z,38.00
2023-11-21T16:37:34.250Z,41.50
2023-11-21T16:40:01.750Z,35.80
2023-11-21T16:42:31.596Z,41.10
2023-11-21T16:47:29.565Z,38.40
2023-11-21T16:49:59.365Z,39.20
2023-11-21T16:52:27.434Z,40.20
2023-11-21T16:54:56.471Z,41.30
2023-11-21T16:57:24.002Z,38.90
2023-11-21T16:59:52.314Z,38.40
2023-11-21T17:02:20.627Z,38.70
2023-11-21T17:04:50.694Z,42.40
2023-11-21T17:07:19.958Z,44.40
2023-11-21T17:09:47.783Z,42.50
2023-11-21T17:12:16.765Z,42.60
2023-11-21T17:14:44.660Z,38.20
2023-11-21T17:17:14.974Z,37.80
2023-11-21T17:19:45.477Z,42.10
2023-11-21T17:22:13.497Z,41.20
2023-11-21T17:24:41.313Z,40.70
2023-11-21T17:27:08.978Z,33.80
2023-11-21T17:29:36.548Z,35.10
2023-11-21T17:32:06.015Z,36.00
2023-11-21T17:34:36.119Z,37.70
2023-11-21T17:37:05.290Z,38.60
2023-11-21T17:39:33.525Z,40.70
2023-11-21T17:42:02.013Z,39.20
2023-11-21T17:44:29.763Z,41.70
2023-11-21T17:46:57.424Z,42.30
2023-11-21T17:49:25.322Z,41.50
2023-11-21T17:51:54.194Z,44.50
2023-11-21T17:54:21.941Z,39.70
2023-11-21T17:56:50.512Z,41.00
2023-11-21T17:59:18.181Z,51.30
2023-11-21T18:01:47.649Z,44.90
2023-11-21T18:04:15.506Z,50.40
2023-11-21T18:06:44.109Z,46.60
2023-11-21T18:09:12.118Z,41.40
2023-11-21T18:11:39.948Z,51.60
2023-11-21T18:14:11.410Z,42.70
2023-11-21T18:16:39.837Z,43.40
2023-11-21T18:19:07.606Z,45.80
2023-11-21T18:21:35.386Z,50.00
2023-11-21T18:24:03.595Z,45.60
2023-11-21T18:26:31.177Z,43.80
2023-11-21T18:28:58.785Z,40.90
2023-11-21T18:31:26.937Z,43.80
2023-11-21T18:33:54.870Z,42.40
2023-11-21T18:36:22.509Z,45.30
2023-11-21T18:38:50.665Z,42.40
2023-11-21T18:41:24.513Z,46.30
2023-11-21T18:43:52.384Z,45.90
2023-11-21T18:46:20.345Z,44.50
2023-11-21T18:48:49.148Z,44.10
2023-11-21T18:51:16.828Z,40.80
2023-11-21T18:53:44.945Z,42.40
2023-11-21T18:56:26.224Z,47.40
2023-11-21T18:58:54.369Z,47.20
2023-11-21T19:01:27.417Z,50.30
2023-11-21T19:03:56.243Z,46.80
2023-11-21T19:06:23.767Z,49.40
2023-11-21T19:08:51.624Z,50.50
2023-11-21T19:11:19.322Z,54.60
2023-11-21T19:13:47.526Z,46.40
2023-11-21T19:16:15.535Z,47.60
2023-11-21T19:18:43.689Z,42.70
2023-11-21T19:21:19.405Z,45.50
2023-11-21T19:23:48.045Z,43.80
2023-11-21T19:26:16.988Z,44.60
2023-11-21T19:28:45.330Z,40.40
2023-11-21T19:31:17.581Z,45.60
2023-11-21T19:33:54.200Z,51.70
2023-11-21T19:36:21.765Z,46.60
2023-11-21T19:38:49.602Z,47.00
2023-11-21T19:41:18.131Z,48.70
2023-11-21T19:43:46.670Z,51.00
2023-11-21T19:46:14.595Z,47.60
2023-11-21T19:48:43.744Z,53.10
2023-11-21T19:51:13.158Z,48.30
2023-11-21T19:53:40.842Z,50.90
2023-11-21T19:56:12.043Z,51.30
2023-11-21T19:58:40.584Z,47.70
2023-11-21T20:01:08.491Z,54.40
2023-11-21T20:03:36.794Z,51.40
2023-11-21T20:06:06.784Z,51.70
2023-11-21T20:08:37.721Z,56.20
2023-11-21T20:11:05.878Z,58.00
2023-11-21T20:13:33.527Z,57.00
2023-11-21T20:16:01.178Z,50.20
2023-11-21T20:18:31.979Z,46.00
2023-11-21T20:20:59.778Z,49.60
2023-11-21T20:23:32.661Z,48.00
2023-11-21T20:26:01.696Z,50.20
2023-11-21T20:28:29.379Z,46.00
2023-11-21T20:30:58.261Z,47.70
2023-11-21T20:33:26.143Z,34.40
2023-11-21T20:35:54.173Z,42.70
2023-11-21T20:38:23.506Z,46.30
2023-11-21T20:40:51.203Z,49.50
2023-11-21T20:43:18.857Z,45.90
2023-11-21T20:45:46.474Z,43.80
2023-11-21T20:48:15.103Z,39.90
2023-11-21T20:50:44.385Z,32.20
2023-11-21T20:53:12.604Z,41.60
2023-11-21T20:55:44.017Z,40.00
2023-11-21T20:58:11.497Z,42.20
2023-11-21T21:00:39.030Z,41.50
2023-11-21T21:03:08.251Z,38.80
2023-11-21T21:05:39.027Z,40.70
2023-11-21T21:08:07.602Z,39.50
2023-11-21T21:10:35.612Z,39.80
2023-11-21T21:13:03.623Z,44.50
2023-11-21T21:15:31.090Z,41.00
2023-11-21T21:17:58.791Z,39.50
2023-11-21T21:20:27.082Z,36.10
2023-11-21T21:22:54.753Z,37.80
2023-11-21T21:25:22.297Z,41.30
2023-11-21T21:27:50.169Z,37.50
2023-11-21T21:30:17.752Z,41.60
2023-11-21T21:32:45.210Z,38.00
2023-11-21T21:35:14.012Z,43.00
2023-11-21T21:37:42.195Z,47.60
2023-11-21T21:40:11.392Z,41.10
2023-11-21T21:42:39.677Z,39.60
2023-11-21T21:45:07.962Z,37.70
2023-11-21T21:47:35.688Z,43.00
2023-11-21T21:50:03.367Z,43.40
2023-11-21T21:52:37.344Z,43.60
2023-11-21T21:55:05.735Z,38.00
2023-11-21T21:57:33.292Z,38.30
2023-11-21T22:00:00.858Z,42.50
2023-11-21T22:02:28.454Z,42.10
2023-11-21T22:04:56.594Z,45.20
2023-11-21T22:07:24.304Z,43.10
2023-11-21T22:09:52.733Z,41.50
2023-11-21T22:12:23.254Z,42.80
2023-11-21T22:14:51.099Z,42.50
2023-11-21T22:17:18.609Z,44.30
2023-11-21T22:19:47.274Z,42.80
2023-11-21T22:22:14.760Z,44.40
2023-11-21T22:24:42.198Z,42.90
2023-11-21T22:27:09.802Z,41.00
2023-11-21T22:29:37.757Z,39.70
2023-11-21T22:32:08.616Z,41.00
2023-11-21T22:34:36.089Z,40.00
2023-11-21T22:37:04.137Z,37.70
2023-11-21T22:39:32.338Z,41.80
2023-11-21T22:41:59.788Z,42.10
2023-11-21T22:44:27.265Z,39.00
2023-11-21T22:47:00.957Z,39.00
2023-11-21T22:49:32.374Z,45.00
2023-11-21T22:52:00.266Z,45.80
2023-11-21T22:54:28.354Z,42.40
2023-11-21T22:56:55.818Z,48.40
2023-11-21T22:59:23.378Z,41.40
2023-11-21T23:01:51.666Z,41.50
2023-11-21T23:04:19.851Z,42.10
2023-11-21T23:06:48.814Z,48.70
2023-11-21T23:09:17.183Z,45.60
2023-11-21T23:11:44.872Z,47.60
2023-11-21T23:14:12.473Z,45.10
2023-11-21T23:16:40.433Z,44.40
2023-11-21T23:19:14.347Z,46.90
2023-11-21T23:21:42.618Z,41.10
2023-11-21T23:24:12.305Z,42.60
2023-11-21T23:26:42.589Z,43.00
2023-11-21T23:29:10.274Z,44.70
2023-11-21T23:31:37.801Z,43.60
2023-11-21T23:34:10.500Z,48.90
2023-11-21T23:36:39.409Z,47.40
2023-11-21T23:39:09.931Z,31.10
2023-11-21T23:41:37.419Z,42.10
2023-11-21T23:44:05.929Z,41.20
2023-11-21T23:46:36.958Z,47.00
2023-11-21T23:49:04.464Z,46.30
2023-11-21T23:51:32.098Z,47.30
2023-11-21T23:53:59.696Z,44.40
2023-11-21T23:56:27.257Z,44.20
2023-11-21T23:58:55.891Z,45.70
